createdAt,value
2019-03-01T00:00:09.783Z,12.10
2019-03-01T00:01:09.760Z,11.90
2019-03-01T00:02:09.689Z,11.50
2019-03-01T00:03:09.644Z,12.00
2019-03-01T00:04:09.613Z,11.40
2019-03-01T00:05:09.583Z,11.30
2019-03-01T00:06:09.558Z,11.80
2019-03-01T00:07:09.500Z,12.20
2019-03-01T00:08:09.430Z,11.90
2019-03-01T00:09:09.420Z,11.00
2019-03-01T00:10:09.363Z,12.00
2019-03-01T00:11:09.327Z,12.60
2019-03-01T00:12:09.302Z,12.00
2019-03-01T00:13:09.232Z,12.70
2019-03-01T00:14:09.176Z,11.40
2019-03-01T00:15:09.149Z,11.30
2019-03-01T00:16:09.117Z,11.30
2019-03-01T00:17:09.076Z,11.60
2019-03-01T00:18:09.019Z,11.20
2019-03-01T00:19:08.996Z,11.60
2019-03-01T00:20:08.936Z,11.30
2019-03-01T00:21:08.923Z,11.70
2019-03-01T00:22:08.852Z,10.90
2019-03-01T00:23:08.814Z,11.10
2019-03-01T00:24:08.774Z,10.70
2019-03-01T00:25:08.731Z,10.60
2019-03-01T00:26:08.684Z,10.70
2019-03-01T00:27:08.667Z,10.70
2019-03-01T00:28:08.586Z,10.60
2019-03-01T00:29:08.580Z,10.50
2019-03-01T00:30:08.521Z,10.60
2019-03-01T00:31:08.491Z,11.30
2019-03-01T00:32:08.475Z,11.20
2019-03-01T00:33:08.391Z,11.00
2019-03-01T00:34:08.352Z,10.80
2019-03-01T00:35:08.303Z,11.00
2019-03-01T00:36:08.291Z,10.50
2019-03-01T00:37:08.230Z,10.40
2019-03-01T00:38:08.198Z,10.80
2019-03-01T00:39:08.125Z,11.30
2019-03-01T00:40:08.084Z,10.50
2019-03-01T00:41:08.043Z,10.70
2019-03-01T00:42:08.017Z,11.20
2019-03-01T00:43:07.960Z,10.50
2019-03-01T00:44:07.955Z,10.70
2019-03-01T00:45:07.866Z,10.20
2019-03-01T00:46:07.842Z,10.20
2019-03-01T00:47:07.792Z,10.90
2019-03-01T00:48:07.766Z,11.30
2019-03-01T00:49:07.740Z,10.70
2019-03-01T00:50:07.658Z,10.40
2019-03-01T00:51:07.616Z,10.70
2019-03-01T00:52:07.593Z,10.40
2019-03-01T00:53:07.551Z,10.70
2019-03-01T00:54:07.543Z,10.50
2019-03-01T00:55:07.467Z,10.50
2019-03-01T00:56:07.418Z,10.40
2019-03-01T00:57:07.366Z,10.60
2019-03-01T00:58:07.317Z,10.20
2019-03-01T00:59:07.287Z,10.40
2019-03-01T01:00:07.231Z,10.10
2019-03-01T01:01:07.200Z,11.00
2019-03-01T01:02:07.162Z,10.70
2019-03-01T01:03:07.131Z,10.50
2019-03-01T01:04:07.109Z,10.20
2019-03-01T01:05:07.013Z,10.30
2019-03-01T01:06:07.018Z,10.50
2019-03-01T01:07:06.975Z,10.40
2019-03-01T01:08:06.896Z,10.70
2019-03-01T01:09:06.859Z,10.60
2019-03-01T01:10:06.832Z,10.70
2019-03-01T01:11:06.782Z,10.50
2019-03-01T01:12:06.724Z,10.90
2019-03-01T01:13:06.723Z,11.30
2019-03-01T01:14:06.662Z,11.00
2019-03-01T01:15:06.621Z,11.20
2019-03-01T01:16:06.560Z,10.50
2019-03-01T01:17:06.519Z,11.00
2019-03-01T01:18:06.472Z,11.50
2019-03-01T01:19:06.434Z,11.00
2019-03-01T01:20:06.406Z,11.20
2019-03-01T01:21:06.348Z,12.00
2019-03-01T01:22:06.313Z,11.10
2019-03-01T01:23:06.284Z,11.40
2019-03-01T01:24:06.230Z,12.30
2019-03-01T01:25:06.185Z,11.60
2019-03-01T01:26:06.123Z,11.70
2019-03-01T01:27:06.089Z,11.30
2019-03-01T01:28:06.077Z,12.20
2019-03-01T01:29:06.017Z,11.20
2019-03-01T01:30:05.950Z,11.10
2019-03-01T01:31:05.935Z,11.00
2019-03-01T01:32:05.879Z,11.90
2019-03-01T01:33:05.875Z,10.90
2019-03-01T01:34:05.794Z,11.70
2019-03-01T01:35:05.778Z,11.20
2019-03-01T01:36:05.724Z,11.90
2019-03-01T01:37:05.674Z,11.60
2019-03-01T01:38:05.620Z,11.50
2019-03-01T01:39:05.607Z,11.50
2019-03-01T01:40:05.575Z,11.90
2019-03-01T01:41:05.498Z,11.70
2019-03-01T01:42:05.469Z,12.40
2019-03-01T01:43:05.416Z,12.40
2019-03-01T01:44:05.366Z,12.80
2019-03-01T01:45:05.375Z,12.90
2019-03-01T01:46:05.324Z,12.30
2019-03-01T01:47:05.258Z,12.30
2019-03-01T01:48:05.207Z,13.10
2019-03-01T01:49:05.189Z,12.80
2019-03-01T01:50:05.132Z,13.30
2019-03-01T01:51:05.062Z,14.10
2019-03-01T01:52:05.079Z,12.80
2019-03-01T01:53:05.018Z,13.00
2019-03-01T01:54:04.984Z,13.00
2019-03-01T01:55:04.913Z,13.00
2019-03-01T01:56:04.918Z,13.30
2019-03-01T01:57:04.803Z,13.40
2019-03-01T01:58:04.773Z,13.20
2019-03-01T01:59:04.781Z,13.40
2019-03-01T02:00:04.703Z,13.60
2019-03-01T02:01:04.640Z,13.60
2019-03-01T02:02:04.626Z,13.20
2019-03-01T02:03:04.596Z,13.70
2019-03-01T02:04:04.584Z,13.70
2019-03-01T02:05:04.499Z,13.20
2019-03-01T02:06:04.457Z,13.30
2019-03-01T02:07:04.422Z,13.60
2019-03-01T02:08:04.362Z,13.60
2019-03-01T02:09:04.347Z,12.70
2019-03-01T02:10:04.259Z,13.10
2019-03-01T02:11:04.234Z,13.30
2019-03-01T02:12:04.202Z,12.90
2019-03-01T02:13:04.154Z,12.40
2019-03-01T02:14:04.141Z,12.70
2019-03-01T02:15:04.054Z,12.80
2019-03-01T02:16:04.026Z,12.10
2019-03-01T02:17:03.972Z,13.30
2019-03-01T02:18:03.949Z,12.60
2019-03-01T02:19:03.939Z,12.40
2019-03-01T02:20:03.849Z,12.90
2019-03-01T02:21:03.822Z,13.30
2019-03-01T02:22:03.753Z,13.00
2019-03-01T02:23:03.729Z,12.60
2019-03-01T02:24:03.697Z,13.70
2019-03-01T02:25:03.634Z,14.10
2019-03-01T02:26:03.586Z,14.00
2019-03-01T02:27:03.573Z,13.60
2019-03-01T02:28:03.506Z,13.80
2019-03-01T02:29:03.483Z,14.20
2019-03-01T02:30:03.429Z,14.70
2019-03-01T02:31:03.395Z,13.50
2019-03-01T02:32:03.339Z,14.50
2019-03-01T02:33:03.294Z,14.60
2019-03-01T02:34:03.305Z,14.10
2019-03-01T02:35:03.220Z,14.30
2019-03-01T02:36:03.170Z,14.20
2019-03-01T02:37:03.132Z,13.90
2019-03-01T02:38:03.094Z,14.80
2019-03-01T02:39:03.067Z,14.40
2019-03-01T02:40:03.033Z,15.10
2019-03-01T02:41:03.025Z,14.70
2019-03-01T02:42:02.905Z,14.90
2019-03-01T02:43:02.867Z,15.40
2019-03-01T02:44:02.830Z,15.50
2019-03-01T02:45:02.814Z,14.90
2019-03-01T02:46:02.749Z,15.20
2019-03-01T02:47:02.706Z,15.10
2019-03-01T02:48:02.652Z,15.40
2019-03-01T02:49:02.650Z,14.70
2019-03-01T02:50:02.600Z,15.50
2019-03-01T02:51:02.554Z,15.60
2019-03-01T02:52:02.511Z,16.00
2019-03-01T02:53:02.446Z,16.40
2019-03-01T02:54:02.430Z,16.00
2019-03-01T02:55:02.390Z,15.50
2019-03-01T02:56:02.336Z,16.90
2019-03-01T02:57:02.270Z,16.10
2019-03-01T02:58:02.240Z,17.50
2019-03-01T02:59:02.197Z,17.20
2019-03-01T03:00:02.157Z,17.00
2019-03-01T03:01:02.152Z,16.50
2019-03-01T03:02:02.065Z,17.80
2019-03-01T03:03:02.013Z,17.10
2019-03-01T03:04:01.974Z,17.20
2019-03-01T03:05:01.960Z,17.80
2019-03-01T03:06:01.914Z,18.30
2019-03-01T03:07:01.861Z,18.50
2019-03-01T03:08:01.819Z,18.50
2019-03-01T03:09:01.829Z,18.10
2019-03-01T03:10:01.727Z,19.10
2019-03-01T03:11:01.713Z,18.80
2019-03-01T03:12:01.635Z,17.40
2019-03-01T03:13:01.639Z,18.70
2019-03-01T03:14:01.758Z,19.50
2019-03-01T03:15:01.544Z,18.60
2019-03-01T03:16:01.481Z,18.80
2019-03-01T03:17:01.435Z,19.60
2019-03-01T03:18:01.380Z,19.60
2019-03-01T03:19:01.373Z,20.10
2019-03-01T03:20:01.313Z,19.90
2019-03-01T03:21:01.246Z,20.30
2019-03-01T03:22:01.222Z,20.30
2019-03-01T03:23:01.190Z,20.50
2019-03-01T03:24:01.154Z,21.10
2019-03-01T03:25:01.104Z,20.50
2019-03-01T03:26:01.072Z,20.20
2019-03-01T03:27:01.049Z,20.80
2019-03-01T03:28:00.989Z,21.60
2019-03-01T03:29:00.931Z,20.90
2019-03-01T03:30:00.916Z,21.40
2019-03-01T03:31:00.828Z,21.10
2019-03-01T03:32:00.796Z,21.80
2019-03-01T03:33:00.758Z,21.60
2019-03-01T03:34:00.726Z,22.00
2019-03-01T03:35:00.731Z,21.80
2019-03-01T03:36:00.637Z,22.30
2019-03-01T03:37:00.582Z,22.00
2019-03-01T03:38:00.548Z,22.00
2019-03-01T03:39:00.500Z,22.70
2019-03-01T03:40:00.458Z,22.40
2019-03-01T03:41:00.407Z,22.60
2019-03-01T03:42:00.389Z,22.40
2019-03-01T03:43:00.370Z,22.60
2019-03-01T03:44:00.283Z,22.90
2019-03-01T03:45:00.430Z,22.90
2019-03-01T03:46:00.198Z,23.30
2019-03-01T03:47:00.144Z,22.90
2019-03-01T03:48:00.150Z,23.90
2019-03-01T03:49:00.074Z,23.50
2019-03-01T03:50:00.037Z,23.90
2019-03-01T03:50:59.982Z,24.10
2019-03-01T03:51:59.945Z,23.00
2019-03-01T03:52:59.894Z,23.80
2019-03-01T03:53:59.881Z,23.90
2019-03-01T03:54:59.806Z,23.60
2019-03-01T03:55:59.772Z,24.50
2019-03-01T03:56:59.726Z,24.10
2019-03-01T03:57:59.701Z,23.90
2019-03-01T03:58:59.646Z,24.60
2019-03-01T03:59:59.638Z,25.50
2019-03-01T04:00:59.557Z,25.00
2019-03-01T04:01:59.502Z,24.90
2019-03-01T04:02:59.510Z,24.70
2019-03-01T04:03:59.442Z,25.10
2019-03-01T04:04:59.413Z,24.90
2019-03-01T04:05:59.347Z,24.00
2019-03-01T04:06:59.301Z,24.80
2019-03-01T04:07:59.265Z,25.40
2019-03-01T04:08:59.217Z,24.30
2019-03-01T04:09:59.220Z,23.70
2019-03-01T04:10:59.136Z,23.70
2019-03-01T04:11:59.107Z,23.60
2019-03-01T04:12:59.054Z,24.70
2019-03-01T04:13:58.997Z,25.30
2019-03-01T04:14:58.980Z,24.40
2019-03-01T04:15:58.917Z,24.60
2019-03-01T04:16:58.884Z,24.30
2019-03-01T04:17:58.879Z,24.20
2019-03-01T04:18:58.804Z,24.80
2019-03-01T04:19:58.793Z,26.00
2019-03-01T04:20:58.733Z,24.80
2019-03-01T04:21:58.668Z,24.90
2019-03-01T04:22:58.661Z,24.60
2019-03-01T04:23:58.601Z,25.50
2019-03-01T04:24:58.549Z,26.00
2019-03-01T04:25:58.533Z,25.30
2019-03-01T04:26:58.440Z,24.20
2019-03-01T04:27:58.439Z,25.10
2019-03-01T04:28:58.385Z,25.10
2019-03-01T04:29:58.333Z,24.20
2019-03-01T04:30:58.303Z,24.50
2019-03-01T04:31:58.274Z,25.40
2019-03-01T04:32:58.204Z,25.40
2019-03-01T04:33:58.195Z,24.60
2019-03-01T04:34:58.108Z,25.10
2019-03-01T04:35:58.109Z,24.50
2019-03-01T04:36:58.061Z,25.20
2019-03-01T04:37:57.994Z,25.20
2019-03-01T04:38:57.946Z,25.10
2019-03-01T04:39:57.905Z,24.60
2019-03-01T04:40:57.911Z,24.70
2019-03-01T04:41:57.841Z,24.40
2019-03-01T04:42:57.790Z,25.20
2019-03-01T04:43:57.735Z,25.30
2019-03-01T04:44:57.697Z,25.40
2019-03-01T04:45:57.650Z,25.70
2019-03-01T04:46:57.636Z,25.60
2019-03-01T04:47:57.563Z,25.30
2019-03-01T04:48:57.518Z,24.50
2019-03-01T04:49:57.509Z,24.50
2019-03-01T04:50:57.459Z,25.00
2019-03-01T04:51:57.448Z,24.60
2019-03-01T04:52:57.347Z,24.50
2019-03-01T04:53:57.305Z,24.60
2019-03-01T04:54:57.294Z,25.40
2019-03-01T04:55:57.237Z,25.30
2019-03-01T04:56:57.215Z,25.00
2019-03-01T04:57:57.151Z,25.90
2019-03-01T04:58:57.105Z,25.40
2019-03-01T04:59:57.072Z,26.20
2019-03-01T05:00:57.027Z,26.80
2019-03-01T05:01:56.968Z,26.60
2019-03-01T05:02:56.993Z,27.50
2019-03-01T05:03:56.894Z,27.20
2019-03-01T05:04:56.843Z,26.00
2019-03-01T05:05:56.809Z,26.30
2019-03-01T05:06:56.790Z,26.20
2019-03-01T05:07:56.715Z,25.60
2019-03-01T05:08:56.684Z,26.60
2019-03-01T05:09:56.644Z,26.60
2019-03-01T05:10:56.595Z,25.20
2019-03-01T05:11:56.536Z,25.20
2019-03-01T05:12:56.558Z,26.60
2019-03-01T05:13:56.464Z,26.80
2019-03-01T05:14:56.440Z,26.70
2019-03-01T05:15:56.372Z,26.10
2019-03-01T05:16:56.332Z,25.90
2019-03-01T05:17:56.294Z,25.90
2019-03-01T05:18:56.282Z,26.10
2019-03-01T05:19:56.204Z,26.60
2019-03-01T05:20:56.176Z,26.30
2019-03-01T05:21:56.120Z,26.60
2019-03-01T05:22:56.118Z,28.00
2019-03-01T05:23:56.074Z,26.10
2019-03-01T05:24:56.001Z,26.30
2019-03-01T05:25:55.957Z,25.70
2019-03-01T05:26:55.915Z,26.30
2019-03-01T05:27:55.894Z,25.90
2019-03-01T05:28:55.817Z,26.30
2019-03-01T05:29:55.809Z,25.60
2019-03-01T05:30:55.730Z,25.00
2019-03-01T05:31:55.704Z,25.70
2019-03-01T05:32:55.723Z,25.60
2019-03-01T05:33:55.617Z,25.30
2019-03-01T05:34:55.578Z,25.60
2019-03-01T05:35:55.542Z,25.30
2019-03-01T05:36:55.488Z,24.80
2019-03-01T05:37:55.466Z,24.10
2019-03-01T05:38:55.420Z,24.90
2019-03-01T05:39:55.369Z,24.60
2019-03-01T05:40:55.313Z,24.10
2019-03-01T05:41:55.289Z,25.80
2019-03-01T05:42:55.268Z,24.80
2019-03-01T05:43:55.200Z,25.80
2019-03-01T05:44:55.155Z,25.70
2019-03-01T05:45:55.137Z,26.60
2019-03-01T05:46:55.089Z,25.90
2019-03-01T05:47:55.050Z,25.70
2019-03-01T05:48:55.000Z,26.40
2019-03-01T05:49:54.952Z,25.80
2019-03-01T05:50:54.904Z,25.50
2019-03-01T05:51:54.860Z,26.30
2019-03-01T05:52:54.806Z,26.40
2019-03-01T05:53:54.799Z,26.30
2019-03-01T05:54:54.743Z,26.00
2019-03-01T05:55:54.686Z,25.80
2019-03-01T05:56:54.656Z,26.50
2019-03-01T05:57:54.616Z,27.00
2019-03-01T05:58:54.607Z,28.20
2019-03-01T05:59:54.509Z,26.80
2019-03-01T06:00:54.520Z,29.00
2019-03-01T06:01:54.422Z,27.20
2019-03-01T06:02:54.410Z,28.50
2019-03-01T06:03:54.355Z,27.70
2019-03-01T06:04:54.330Z,28.80
2019-03-01T06:05:54.287Z,28.30
2019-03-01T06:06:54.241Z,28.20
2019-03-01T06:07:54.177Z,29.00
2019-03-01T06:08:54.128Z,28.00
2019-03-01T06:09:54.094Z,29.80
2019-03-01T06:10:54.055Z,29.80
2019-03-01T06:11:54.028Z,29.80
2019-03-01T06:12:54.007Z,29.50
2019-03-01T06:13:53.948Z,30.30
2019-03-01T06:14:53.900Z,31.70
2019-03-01T06:15:53.839Z,31.40
2019-03-01T06:16:53.825Z,32.00
2019-03-01T06:17:53.766Z,32.20
2019-03-01T06:18:53.716Z,32.00
2019-03-01T06:19:53.695Z,32.30
2019-03-01T06:20:53.638Z,31.70
2019-03-01T06:21:53.580Z,32.70
2019-03-01T06:22:53.548Z,33.40
2019-03-01T06:23:53.500Z,33.00
2019-03-01T06:24:53.465Z,33.40
2019-03-01T06:25:53.460Z,32.20
2019-03-01T06:26:53.380Z,34.70
2019-03-01T06:27:53.329Z,34.20
2019-03-01T06:28:53.293Z,34.50
2019-03-01T06:29:53.265Z,35.40
2019-03-01T06:30:53.225Z,35.30
2019-03-01T06:31:53.191Z,35.40
2019-03-01T06:32:53.116Z,35.90
2019-03-01T06:33:53.080Z,35.60
2019-03-01T06:34:53.039Z,35.60
2019-03-01T06:35:53.019Z,36.30
2019-03-01T06:36:52.959Z,37.50
2019-03-01T06:37:52.913Z,37.40
2019-03-01T06:38:52.865Z,28.10
2019-03-01T06:39:52.832Z,33.20
2019-03-01T06:40:52.804Z,30.10
2019-03-01T06:41:52.745Z,31.70
2019-03-01T06:42:52.694Z,29.70
2019-03-01T06:43:52.659Z,30.10
2019-03-01T06:44:52.611Z,32.70
2019-03-01T06:45:52.596Z,31.90
2019-03-01T06:46:52.518Z,31.20
2019-03-01T06:47:52.496Z,31.60
2019-03-01T06:48:52.439Z,32.30
2019-03-01T06:49:52.394Z,33.60
2019-03-01T06:50:52.383Z,33.00
2019-03-01T06:51:52.322Z,34.80
2019-03-01T06:52:52.292Z,34.30
2019-03-01T06:53:52.227Z,34.00
2019-03-01T06:54:52.179Z,34.90
2019-03-01T06:55:52.158Z,34.30
2019-03-01T06:56:52.102Z,35.10
2019-03-01T06:57:52.100Z,36.60
2019-03-01T06:58:52.023Z,39.00
2019-03-01T06:59:51.993Z,39.90
2019-03-01T07:00:51.930Z,40.50
2019-03-01T07:01:51.900Z,42.30
2019-03-01T07:02:51.861Z,45.80
2019-03-01T07:03:51.910Z,46.40
2019-03-01T07:04:52.217Z,48.60
2019-03-01T07:05:51.968Z,48.10
2019-03-01T07:06:51.724Z,48.90
2019-03-01T07:07:51.656Z,53.10
2019-03-01T07:08:51.628Z,48.00
2019-03-01T07:09:51.615Z,49.90
2019-03-01T07:10:51.528Z,52.50
2019-03-01T07:11:51.468Z,53.20
2019-03-01T07:12:51.418Z,53.70
2019-03-01T07:13:51.411Z,54.90
2019-03-01T07:14:51.339Z,52.40
2019-03-01T07:15:51.319Z,54.90
2019-03-01T07:16:51.261Z,52.60
2019-03-01T07:17:51.226Z,56.50
2019-03-01T07:18:51.176Z,57.00
2019-03-01T07:19:51.147Z,59.20
2019-03-01T07:20:51.108Z,57.60
2019-03-01T07:21:51.070Z,60.20
2019-03-01T07:22:51.012Z,63.30
2019-03-01T07:23:50.999Z,59.20
2019-03-01T07:24:50.916Z,58.20
2019-03-01T07:25:50.904Z,61.40
2019-03-01T07:26:50.846Z,60.30
2019-03-01T07:27:50.788Z,59.30
2019-03-01T07:28:50.761Z,62.80
2019-03-01T07:29:50.723Z,59.40
2019-03-01T07:30:50.696Z,61.30
2019-03-01T07:31:50.637Z,62.50
2019-03-01T07:32:50.575Z,60.50
2019-03-01T07:33:50.565Z,63.50
2019-03-01T07:34:50.501Z,62.50
2019-03-01T07:35:50.465Z,62.40
2019-03-01T07:36:50.422Z,66.10
2019-03-01T07:37:50.373Z,65.10
2019-03-01T07:38:50.336Z,62.60
2019-03-01T07:39:50.321Z,63.10
2019-03-01T07:40:50.274Z,62.60
2019-03-01T07:41:50.228Z,63.20
2019-03-01T07:42:50.159Z,63.20
2019-03-01T07:43:50.137Z,69.00
2019-03-01T07:44:50.087Z,70.20
2019-03-01T07:45:50.050Z,75.30
2019-03-01T07:46:52.875Z,79.10
2019-03-01T07:47:49.947Z,80.80
2019-03-01T07:48:49.931Z,83.20
2019-03-01T07:49:49.873Z,83.00
2019-03-01T07:50:52.520Z,86.60
2019-03-01T07:51:49.782Z,87.50
2019-03-01T07:52:49.759Z,87.30
2019-03-01T07:53:49.699Z,86.90
2019-03-01T07:54:52.747Z,88.00
2019-03-01T07:55:49.638Z,90.10
2019-03-01T07:56:49.576Z,91.30
2019-03-01T07:57:50.563Z,92.70
2019-03-01T07:58:49.511Z,95.10
2019-03-01T07:59:49.487Z,95.60
2019-03-01T08:00:53.340Z,97.90
2019-03-01T08:01:49.408Z,101.50
2019-03-01T08:02:49.353Z,101.60
2019-03-01T08:03:52.268Z,107.20
2019-03-01T08:04:49.239Z,109.40
2019-03-01T08:05:49.196Z,107.60
2019-03-01T08:06:49.672Z,113.30
2019-03-01T08:07:56.153Z,113.50
2019-03-01T08:08:49.086Z,118.70
2019-03-01T08:09:49.048Z,119.10
2019-03-01T08:10:49.000Z,120.90
2019-03-01T08:11:49.150Z,118.00
2019-03-01T08:12:49.031Z,121.10
2019-03-01T08:13:49.358Z,123.10
2019-03-01T08:14:48.836Z,124.80
2019-03-01T08:15:48.897Z,124.10
2019-03-01T08:16:48.806Z,123.90
2019-03-01T08:17:48.738Z,125.20
2019-03-01T08:18:48.651Z,124.90
2019-03-01T08:19:48.737Z,126.00
2019-03-01T08:20:48.636Z,127.80
2019-03-01T08:21:49.828Z,128.40
2019-03-01T08:22:49.363Z,131.20
2019-03-01T08:23:50.509Z,128.00
2019-03-01T08:24:48.415Z,127.30
2019-03-01T08:25:48.476Z,129.40
2019-03-01T08:26:48.325Z,128.20
2019-03-01T08:27:50.293Z,130.90
2019-03-01T08:28:48.231Z,127.40
2019-03-01T08:29:48.188Z,131.80
2019-03-01T08:30:48.143Z,124.80
2019-03-01T08:31:48.160Z,128.50
2019-03-01T08:32:48.068Z,125.50
2019-03-01T08:33:48.041Z,129.00
2019-03-01T08:34:49.852Z,128.80
2019-03-01T08:35:47.935Z,127.90
2019-03-01T08:36:47.924Z,126.10
2019-03-01T08:37:49.814Z,127.70
2019-03-01T08:38:48.019Z,129.60
2019-03-01T08:39:49.645Z,128.00
2019-03-01T08:40:49.890Z,130.20
2019-03-01T08:41:47.696Z,133.70
2019-03-01T08:42:47.637Z,128.80
2019-03-01T08:43:48.121Z,130.40
2019-03-01T08:44:47.594Z,130.90
2019-03-01T08:45:47.528Z,135.40
2019-03-01T08:46:47.555Z,134.10
2019-03-01T08:47:48.744Z,131.30
2019-03-01T08:48:47.506Z,132.90
2019-03-01T08:49:47.353Z,134.90
2019-03-01T08:50:47.328Z,135.30
2019-03-01T08:51:47.287Z,136.70
2019-03-01T08:52:47.252Z,135.90
2019-03-01T08:53:48.329Z,132.80
2019-03-01T08:54:47.144Z,134.50
2019-03-01T08:55:47.118Z,131.00
2019-03-01T08:56:50.318Z,134.40
2019-03-01T08:57:47.006Z,133.90
2019-03-01T08:58:46.976Z,136.50
2019-03-01T08:59:46.918Z,132.20
2019-03-01T09:00:46.900Z,132.40
2019-03-01T09:01:46.831Z,137.60
2019-03-01T09:02:46.788Z,131.10
2019-03-01T09:03:46.795Z,135.90
2019-03-01T09:04:50.994Z,138.20
2019-03-01T09:05:46.678Z,132.90
2019-03-01T09:06:46.623Z,135.50
2019-03-01T09:07:46.604Z,138.00
2019-03-01T09:08:46.927Z,135.90
2019-03-01T09:09:46.524Z,134.40
2019-03-01T09:10:46.463Z,134.50
2019-03-01T09:11:46.406Z,134.90
2019-03-01T09:12:46.361Z,135.40
2019-03-01T09:13:46.350Z,137.40
2019-03-01T09:14:46.266Z,142.30
2019-03-01T09:15:49.350Z,137.60
2019-03-01T09:16:46.230Z,132.80
2019-03-01T09:17:46.167Z,130.60
2019-03-01T09:18:46.581Z,126.20
2019-03-01T09:19:46.088Z,124.40
2019-03-01T09:20:46.043Z,122.60
2019-03-01T09:21:50.142Z,126.50
2019-03-01T09:22:46.084Z,121.50
2019-03-01T09:23:47.931Z,124.80
2019-03-01T09:24:45.919Z,125.40
2019-03-01T09:25:45.802Z,122.20
2019-03-01T09:26:45.760Z,120.90
2019-03-01T09:27:45.725Z,119.20
2019-03-01T09:28:45.677Z,121.80
2019-03-01T09:29:45.636Z,118.30
2019-03-01T09:30:45.645Z,115.30
2019-03-01T09:31:45.550Z,118.10
2019-03-01T09:32:45.505Z,118.60
2019-03-01T09:33:45.468Z,118.40
2019-03-01T09:34:45.438Z,116.40
2019-03-01T09:35:45.431Z,114.90
2019-03-01T09:36:45.356Z,114.50
2019-03-01T09:37:45.292Z,105.10
2019-03-01T09:38:45.272Z,106.90
2019-03-01T09:39:45.225Z,102.80
2019-03-01T09:40:45.267Z,102.40
2019-03-01T09:41:45.154Z,110.80
2019-03-01T09:42:47.496Z,111.10
2019-03-01T09:43:45.056Z,134.00
2019-03-01T09:44:45.144Z,119.10
2019-03-01T09:45:45.626Z,99.10
2019-03-01T09:46:45.071Z,94.80
2019-03-01T09:47:44.907Z,96.50
2019-03-01T09:48:45.663Z,96.20
2019-03-01T09:49:45.059Z,92.20
2019-03-01T09:50:44.745Z,91.20
2019-03-01T09:51:49.193Z,91.30
2019-03-01T09:52:46.608Z,91.30
2019-03-01T09:53:44.603Z,88.10
2019-03-01T09:54:44.584Z,87.40
2019-03-01T09:55:44.523Z,85.10
2019-03-01T09:56:44.501Z,83.60
2019-03-01T09:57:44.468Z,82.80
2019-03-01T09:58:44.393Z,81.30
2019-03-01T09:59:44.353Z,78.00
2019-03-01T10:00:44.305Z,76.60
2019-03-01T10:01:44.283Z,74.50
2019-03-01T10:02:44.258Z,76.70
2019-03-01T10:03:44.188Z,80.90
2019-03-01T10:04:44.152Z,77.80
2019-03-01T10:05:44.169Z,75.30
2019-03-01T10:06:44.072Z,75.20
2019-03-01T10:07:44.023Z,74.40
2019-03-01T10:08:43.991Z,72.40
2019-03-01T10:09:43.937Z,75.50
2019-03-01T10:10:43.919Z,74.10
2019-03-01T10:11:43.872Z,74.20
2019-03-01T10:12:43.834Z,75.40
2019-03-01T10:13:43.764Z,72.00
2019-03-01T10:14:43.737Z,72.40
2019-03-01T10:15:43.706Z,71.10
2019-03-01T10:16:43.633Z,71.70
2019-03-01T10:17:43.625Z,70.70
2019-03-01T10:18:43.560Z,72.50
2019-03-01T10:19:43.522Z,71.10
2019-03-01T10:20:43.496Z,69.80
2019-03-01T10:21:43.486Z,70.10
2019-03-01T10:22:43.396Z,67.40
2019-03-01T10:23:43.348Z,69.70
2019-03-01T10:24:43.304Z,69.30
2019-03-01T10:25:43.266Z,69.20
2019-03-01T10:26:43.245Z,70.20
2019-03-01T10:27:43.172Z,67.70
2019-03-01T10:28:43.138Z,68.40
2019-03-01T10:29:43.103Z,68.60
2019-03-01T10:30:43.054Z,68.20
2019-03-01T10:31:43.030Z,67.80
2019-03-01T10:32:42.979Z,68.50
2019-03-01T10:33:42.916Z,69.40
2019-03-01T10:34:42.923Z,70.70
2019-03-01T10:35:42.830Z,69.50
2019-03-01T10:36:42.793Z,69.30
2019-03-01T10:37:42.786Z,69.60
2019-03-01T10:38:42.721Z,71.00
2019-03-01T10:39:42.645Z,70.40
2019-03-01T10:40:42.649Z,70.30
2019-03-01T10:41:42.583Z,71.90
2019-03-01T10:42:42.576Z,73.60
2019-03-01T10:43:42.492Z,72.40
2019-03-01T10:44:42.449Z,70.10
2019-03-01T10:45:42.405Z,72.60
2019-03-01T10:46:42.405Z,72.90
2019-03-01T10:47:42.319Z,74.50
2019-03-01T10:48:42.313Z,74.80
2019-03-01T10:49:42.221Z,74.90
2019-03-01T10:50:42.206Z,77.10
2019-03-01T10:51:42.182Z,79.40
2019-03-01T10:52:42.157Z,78.60
2019-03-01T10:53:42.092Z,78.70
2019-03-01T10:54:42.028Z,81.90
2019-03-01T10:55:41.986Z,80.60
2019-03-01T10:56:41.941Z,80.30
2019-03-01T10:57:41.919Z,77.40
2019-03-01T10:58:41.834Z,78.10
2019-03-01T10:59:41.820Z,77.40
2019-03-01T11:00:41.802Z,76.90
2019-03-01T11:01:41.730Z,75.80
2019-03-01T11:02:41.680Z,75.40
2019-03-01T11:03:41.623Z,77.10
2019-03-01T11:04:41.620Z,76.20
2019-03-01T11:05:41.540Z,76.30
2019-03-01T11:06:41.508Z,74.00
2019-03-01T11:07:41.457Z,72.20
2019-03-01T11:08:41.406Z,72.80
2019-03-01T11:09:41.407Z,72.90
2019-03-01T11:10:41.323Z,76.50
2019-03-01T11:11:41.374Z,73.80
2019-03-01T11:12:41.243Z,75.00
2019-03-01T11:13:41.225Z,76.00
2019-03-01T11:14:41.226Z,74.80
2019-03-01T11:15:41.147Z,71.00
2019-03-01T11:16:41.091Z,71.70
2019-03-01T11:17:41.042Z,73.00
2019-03-01T11:18:41.004Z,74.20
2019-03-01T11:19:40.982Z,72.80
2019-03-01T11:20:40.978Z,71.80
2019-03-01T11:21:40.890Z,69.80
2019-03-01T11:22:40.837Z,73.60
2019-03-01T11:23:40.797Z,73.20
2019-03-01T11:24:40.760Z,72.80
2019-03-01T11:25:40.787Z,71.80
2019-03-01T11:26:40.663Z,71.30
2019-03-01T11:27:40.614Z,68.70
2019-03-01T11:28:40.581Z,64.70
2019-03-01T11:29:40.560Z,65.90
2019-03-01T11:30:40.524Z,61.70
2019-03-01T11:31:40.441Z,61.70
2019-03-01T11:32:40.414Z,61.80
2019-03-01T11:33:40.347Z,60.80
2019-03-01T11:34:40.326Z,59.20
2019-03-01T11:35:40.314Z,56.20
2019-03-01T11:36:40.273Z,57.00
2019-03-01T11:37:40.182Z,59.10
2019-03-01T11:38:40.154Z,56.50
2019-03-01T11:39:40.127Z,57.10
2019-03-01T11:40:40.074Z,55.00
2019-03-01T11:41:40.045Z,54.50
2019-03-01T11:42:40.002Z,55.20
2019-03-01T11:43:39.958Z,55.50
2019-03-01T11:44:39.929Z,54.70
2019-03-01T11:45:39.884Z,53.30
2019-03-01T11:46:39.847Z,53.20
2019-03-01T11:47:39.790Z,52.50
2019-03-01T11:48:39.757Z,52.10
2019-03-01T11:49:39.695Z,52.50
2019-03-01T11:50:39.649Z,52.40
2019-03-01T11:51:39.627Z,52.40
2019-03-01T11:52:39.592Z,51.70
2019-03-01T11:53:39.515Z,51.20
2019-03-01T11:54:39.460Z,51.50
2019-03-01T11:55:39.437Z,49.60
2019-03-01T11:56:39.414Z,49.30
2019-03-01T11:57:39.422Z,47.20
2019-03-01T11:58:39.300Z,48.60
2019-03-01T11:59:39.271Z,46.20
2019-03-01T12:00:39.241Z,47.20
2019-03-01T12:01:39.166Z,47.50
2019-03-01T12:02:39.165Z,45.60
2019-03-01T12:03:39.095Z,46.30
2019-03-01T12:04:39.053Z,47.10
2019-03-01T12:05:39.025Z,47.30
2019-03-01T12:06:39.011Z,49.70
2019-03-01T12:07:38.939Z,48.30
2019-03-01T12:08:38.894Z,48.70
2019-03-01T12:09:38.835Z,48.90
2019-03-01T12:10:38.801Z,47.80
2019-03-01T12:11:38.761Z,47.70
2019-03-01T12:12:38.720Z,47.80
2019-03-01T12:13:38.693Z,48.40
2019-03-01T12:14:38.638Z,47.70
2019-03-01T12:15:38.581Z,47.50
2019-03-01T12:16:38.545Z,48.00
2019-03-01T12:17:38.491Z,48.80
2019-03-01T12:18:38.460Z,48.10
2019-03-01T12:19:38.408Z,49.70
2019-03-01T12:20:38.376Z,48.90
2019-03-01T12:21:38.321Z,49.10
2019-03-01T12:22:38.282Z,48.40
2019-03-01T12:23:38.243Z,49.30
2019-03-01T12:24:38.231Z,49.00
2019-03-01T12:25:38.188Z,46.60
2019-03-01T12:26:38.102Z,46.90
2019-03-01T12:27:38.069Z,46.50
2019-03-01T12:28:38.012Z,45.10
2019-03-01T12:29:38.023Z,46.10
2019-03-01T12:30:37.933Z,45.00
2019-03-01T12:31:37.894Z,44.00
2019-03-01T12:32:37.886Z,44.10
2019-03-01T12:33:37.831Z,44.00
2019-03-01T12:34:37.796Z,43.50
2019-03-01T12:35:37.740Z,42.60
2019-03-01T12:36:37.665Z,43.00
2019-03-01T12:37:37.635Z,42.30
2019-03-01T12:38:37.614Z,43.60
2019-03-01T12:39:37.588Z,42.00
2019-03-01T12:40:37.509Z,38.10
2019-03-01T12:41:37.467Z,37.90
2019-03-01T12:42:37.416Z,37.10
2019-03-01T12:43:37.367Z,38.30
2019-03-01T12:44:37.347Z,37.30
2019-03-01T12:45:37.322Z,37.40
2019-03-01T12:46:37.285Z,37.90
2019-03-01T12:47:37.217Z,37.30
2019-03-01T12:48:37.868Z,35.00